Alma, GA

8:40 AM EDT on August 29, 2016 (GMT -0400)
Bacon County | | Change Station

Elev 200 ft 31.54 °N, 82.51 °W | Updated 20 minutes ago

Overcast
Overcast
75 °F
Feels Like 75 °F
N
4
Wind Variable Wind from Variable

Today
High -- | Low -- °F
--% Chance of Precip.
Yesterday
High -- | Low -- °F
Precip. -- in
Pressure 30.06 in
Visibility 4.0 miles
Clouds Overcast 400 ft
Dew Point 74 °F
Humidity 96%
Rainfall 0.00 in
Snow Depth Not available.
7:04 AM 7:56 PM
Waning Crescent, 9% visible
SPECI KAMG 291220Z AUTO VRB03KT 4SM BR OVC004 24/23 A3006 RMK AO2 T02390233
Pressure 30.06 in
Visibility 4.0 miles
Clouds Overcast 400 ft
Dew Point 74 °F
Humidity 96%
Rainfall 0.00 in
Snow Depth Not available.
7:04 AM 7:56 PM
Waning Crescent, 9% visible
SPECI KAMG 291220Z AUTO VRB03KT 4SM BR OVC004 24/23 A3006 RMK AO2 T02390233
The area of storminess, previously known as Invest 99-L that we were monitoring for days, finally developed into Tropical Depression Nine near the Florida Keys on Sunday evening.

There remains a large degree of uncertainty around how much this system will strengthen once it gets into the southeast Gulf of Mexico. For now, the clockwise flow around upper-level high pressure over the eastern United States will steer Tropical Depression Nine west-northwest toward the Gulf. That high will weaken by Tuesday, allowing this system to move more north, and then eventually northeast the next several days on a path toward the Florida Gulf Coast.

10-Day Weather Forecast

Almanac

Astronomy

Aug. 29, 2016 Rise Set
Actual Time
Civil Twilight
Nautical Twilight
Astronomical Twilight
Moon
Length of Visible Light
Length of Day
Tomorrow will be .
, % of the Moon is Illuminated

Today's Extremes

State Highs State Lows

Community

WunderPhotos

Upload Photos

1,935,810 photos uploaded!

WunderBlog® & News

Nearby

Air Quality

  Air Quality AQ Index Pollutant
Not available.

Snow Depth

Station Depth Elevation

Earthquake Activity

City Distance Mag. Time & Date
Minimum magnitude displayed is 2.5.

Coastal Water Temperatures

Place Temperature

Stations

Nearby Weather Stations

Station Location Temp. Windchill Dew Point Humidity Wind Precip. Elev Updated Type
                   

Watches & Warnings

There are currently no watches in effect.